sensor_id;sensor_type;location;lat;lon;timestamp;pressure;altitude;pressure_sealevel;temperature;humidity
37066;BME280;22981;43.080;25.550;2023-07-24T00:01:44;99674.05;;;22.50;71.87
37066;BME280;22981;43.080;25.550;2023-07-24T00:04:11;99673.49;;;22.50;71.82
37066;BME280;22981;43.080;25.550;2023-07-24T00:06:39;99680.87;;;22.50;71.76
37066;BME280;22981;43.080;25.550;2023-07-24T00:09:06;99683.06;;;22.48;71.81
37066;BME280;22981;43.080;25.550;2023-07-24T00:11:34;99689.70;;;22.42;71.87
37066;BME280;22981;43.080;25.550;2023-07-24T00:14:01;99682.42;;;22.35;72.03
37066;BME280;22981;43.080;25.550;2023-07-24T00:16:29;99684.34;;;22.34;72.04
37066;BME280;22981;43.080;25.550;2023-07-24T00:18:56;99689.53;;;22.33;71.97
37066;BME280;22981;43.080;25.550;2023-07-24T00:21:24;99683.58;;;22.31;71.90
37066;BME280;22981;43.080;25.550;2023-07-24T00:23:51;99688.24;;;22.28;72.00
37066;BME280;22981;43.080;25.550;2023-07-24T00:26:19;99687.20;;;22.24;72.20
37066;BME280;22981;43.080;25.550;2023-07-24T00:28:47;99685.37;;;22.17;72.53
37066;BME280;22981;43.080;25.550;2023-07-24T00:31:14;99683.45;;;22.17;72.47
37066;BME280;22981;43.080;25.550;2023-07-24T00:33:42;99677.72;;;22.19;72.31
37066;BME280;22981;43.080;25.550;2023-07-24T00:36:09;99676.63;;;22.17;72.31
37066;BME280;22981;43.080;25.550;2023-07-24T00:38:37;99677.48;;;22.15;72.33
37066;BME280;22981;43.080;25.550;2023-07-24T00:41:05;99674.78;;;22.13;72.34
37066;BME280;22981;43.080;25.550;2023-07-24T00:43:32;99675.39;;;22.05;72.51
37066;BME280;22981;43.080;25.550;2023-07-24T00:46:00;99676.30;;;21.97;72.63
37066;BME280;22981;43.080;25.550;2023-07-24T00:48:27;99683.70;;;21.92;72.76
37066;BME280;22981;43.080;25.550;2023-07-24T00:50:56;99682.07;;;21.93;72.73
37066;BME280;22981;43.080;25.550;2023-07-24T00:53:24;99683.39;;;21.96;72.55
37066;BME280;22981;43.080;25.550;2023-07-24T00:55:51;99684.20;;;21.96;72.45
37066;BME280;22981;43.080;25.550;2023-07-24T00:58:19;99688.28;;;21.96;72.36
37066;BME280;22981;43.080;25.550;2023-07-24T01:00:47;99687.48;;;21.96;72.29
37066;BME280;22981;43.080;25.550;2023-07-24T01:03:15;99688.33;;;21.94;72.35
37066;BME280;22981;43.080;25.550;2023-07-24T01:05:42;99689.14;;;21.94;72.31
37066;BME280;22981;43.080;25.550;2023-07-24T01:08:10;99678.25;;;21.92;72.32
37066;BME280;22981;43.080;25.550;2023-07-24T01:10:37;99679.06;;;21.92;72.31
37066;BME280;22981;43.080;25.550;2023-07-24T01:15:47;99684.52;;;21.92;72.24
37066;BME280;22981;43.080;25.550;2023-07-24T01:18:11;99672.55;;;21.91;72.22
37066;BME280;22981;43.080;25.550;2023-07-24T01:20:43;99669.59;;;21.87;72.35
37066;BME280;22981;43.080;25.550;2023-07-24T01:23:20;99666.30;;;21.88;72.41
37066;BME280;22981;43.080;25.550;2023-07-24T01:25:58;99666.05;;;21.87;72.50
37066;BME280;22981;43.080;25.550;2023-07-24T01:28:26;99665.87;;;21.78;72.64
37066;BME280;22981;43.080;25.550;2023-07-24T01:30:54;99665.70;;;21.67;72.91
37066;BME280;22981;43.080;25.550;2023-07-24T01:33:22;99670.47;;;21.54;73.35
37066;BME280;22981;43.080;25.550;2023-07-24T01:35:57;99664.50;;;21.54;73.41
37066;BME280;22981;43.080;25.550;2023-07-24T01:38:24;99672.61;;;21.59;73.33
37066;BME280;22981;43.080;25.550;2023-07-24T01:40:55;99670.66;;;21.62;73.12
37066;BME280;22981;43.080;25.550;2023-07-24T01:43:24;99667.91;;;21.65;72.99
37066;BME280;22981;43.080;25.550;2023-07-24T01:45:54;99665.45;;;21.66;72.92
37066;BME280;22981;43.080;25.550;2023-07-24T01:48:21;99672.00;;;21.65;72.95
37066;BME280;22981;43.080;25.550;2023-07-24T01:50:49;99665.30;;;21.55;72.85
37066;BME280;22981;43.080;25.550;2023-07-24T01:53:16;99664.87;;;21.42;73.15
37066;BME280;22981;43.080;25.550;2023-07-24T01:55:44;99664.06;;;21.42;73.20
37066;BME280;22981;43.080;25.550;2023-07-24T01:58:12;99668.91;;;21.45;73.13
37066;BME280;22981;43.080;25.550;2023-07-24T02:00:39;99668.66;;;21.44;73.03
37066;BME280;22981;43.080;25.550;2023-07-24T02:03:07;99679.34;;;21.38;72.96
37066;BME280;22981;43.080;25.550;2023-07-24T02:05:34;99682.45;;;21.21;73.12
37066;BME280;22981;43.080;25.550;2023-07-24T02:08:02;99687.44;;;21.09;73.54
37066;BME280;22981;43.080;25.550;2023-07-24T02:10:29;99682.55;;;21.08;73.64
37066;BME280;22981;43.080;25.550;2023-07-24T02:12:57;99684.41;;;21.13;73.55
37066;BME280;22981;43.080;25.550;2023-07-24T02:15:24;99681.91;;;21.19;73.50
37066;BME280;22981;43.080;25.550;2023-07-24T02:17:52;99679.17;;;21.21;73.44
37066;BME280;22981;43.080;25.550;2023-07-24T02:22:46;99679.72;;;21.21;73.47
37066;BME280;22981;43.080;25.550;2023-07-24T02:25:14;99675.95;;;21.14;73.53
37066;BME280;22981;43.080;25.550;2023-07-24T02:27:41;99688.25;;;21.07;73.75
37066;BME280;22981;43.080;25.550;2023-07-24T02:30:09;99685.82;;;21.08;73.78
37066;BME280;22981;43.080;25.550;2023-07-24T02:32:37;99692.88;;;21.11;73.62
37066;BME280;22981;43.080;25.550;2023-07-24T02:35:05;99692.28;;;21.14;73.43
37066;BME280;22981;43.080;25.550;2023-07-24T02:37:33;99681.66;;;21.15;73.33
37066;BME280;22981;43.080;25.550;2023-07-24T02:40:00;99682.51;;;21.11;73.28
37066;BME280;22981;43.080;25.550;2023-07-24T02:42:28;99687.23;;;21.00;73.37
37066;BME280;22981;43.080;25.550;2023-07-24T02:44:55;99689.14;;;20.97;73.54
37066;BME280;22981;43.080;25.550;2023-07-24T02:47:23;99688.33;;;20.99;73.41
37066;BME280;22981;43.080;25.550;2023-07-24T02:49:50;99681.83;;;20.92;73.54
37066;BME280;22981;43.080;25.550;2023-07-24T02:52:18;99679.66;;;20.89;73.70
37066;BME280;22981;43.080;25.550;2023-07-24T02:54:46;99682.38;;;20.92;73.67
37066;BME280;22981;43.080;25.550;2023-07-24T02:57:13;99681.57;;;20.91;73.65
37066;BME280;22981;43.080;25.550;2023-07-24T02:59:41;99681.02;;;20.92;73.65
37066;BME280;22981;43.080;25.550;2023-07-24T03:02:08;99683.48;;;20.88;73.82
37066;BME280;22981;43.080;25.550;2023-07-24T03:04:36;99682.68;;;20.88;73.91
37066;BME280;22981;43.080;25.550;2023-07-24T03:07:04;99690.80;;;20.93;73.95
37066;BME280;22981;43.080;25.550;2023-07-24T03:09:31;99686.47;;;20.92;73.87
37066;BME280;22981;43.080;25.550;2023-07-24T03:11:59;99690.55;;;20.92;73.91
37066;BME280;22981;43.080;25.550;2023-07-24T03:14:26;99681.58;;;20.89;73.89
37066;BME280;22981;43.080;25.550;2023-07-24T03:16:54;99684.59;;;20.85;74.08
37066;BME280;22981;43.080;25.550;2023-07-24T03:19:21;99681.09;;;20.82;74.22
37066;BME280;22981;43.080;25.550;2023-07-24T03:21:49;99685.73;;;20.76;74.33
37066;BME280;22981;43.080;25.550;2023-07-24T03:24:17;99691.22;;;20.71;74.51
37066;BME280;22981;43.080;25.550;2023-07-24T03:26:44;99678.97;;;20.73;74.46
37066;BME280;22981;43.080;25.550;2023-07-24T03:29:12;99670.77;;;20.76;74.34
37066;BME280;22981;43.080;25.550;2023-07-24T03:31:39;99668.31;;;20.80;74.35
37066;BME280;22981;43.080;25.550;2023-07-24T03:34:07;99669.11;;;20.83;74.33
37066;BME280;22981;43.080;25.550;2023-07-24T03:36:35;99675.62;;;20.87;74.33
37066;BME280;22981;43.080;25.550;2023-07-24T03:39:03;99677.20;;;20.93;74.16
37066;BME280;22981;43.080;25.550;2023-07-24T03:41:30;99669.92;;;20.83;74.23
37066;BME280;22981;43.080;25.550;2023-07-24T03:43:58;99671.91;;;20.70;74.67
37066;BME280;22981;43.080;25.550;2023-07-24T03:46:25;99664.60;;;20.63;75.11
37066;BME280;22981;43.080;25.550;2023-07-24T03:48:53;99670.04;;;20.63;75.07
37066;BME280;22981;43.080;25.550;2023-07-24T03:51:21;99669.84;;;20.52;75.22
37066;BME280;22981;43.080;25.550;2023-07-24T03:53:48;99670.66;;;20.49;75.62
37066;BME280;22981;43.080;25.550;2023-07-24T03:56:16;99668.97;;;20.59;75.79
37066;BME280;22981;43.080;25.550;2023-07-24T03:58:43;99669.48;;;20.66;75.52
37066;BME280;22981;43.080;25.550;2023-07-24T04:01:11;99670.30;;;20.66;75.30
37066;BME280;22981;43.080;25.550;2023-07-24T04:03:38;99671.66;;;20.64;75.43
37066;BME280;22981;43.080;25.550;2023-07-24T04:06:06;99677.91;;;20.67;75.49
37066;BME280;22981;43.080;25.550;2023-07-24T04:08:33;99677.06;;;20.71;75.37
37066;BME280;22981;43.080;25.550;2023-07-24T04:11:01;99680.59;;;20.72;75.22
37066;BME280;22981;43.080;25.550;2023-07-24T04:13:30;99677.65;;;20.66;75.39
37066;BME280;22981;43.080;25.550;2023-07-24T04:15:58;99677.39;;;20.62;75.58
37066;BME280;22981;43.080;25.550;2023-07-24T04:18:25;99679.56;;;20.63;75.66
37066;BME280;22981;43.080;25.550;2023-07-24T04:20:53;99678.20;;;20.63;75.62
37066;BME280;22981;43.080;25.550;2023-07-24T04:23:22;99679.56;;;20.63;75.71
37066;BME280;22981;43.080;25.550;2023-07-24T04:25:50;99678.23;;;20.60;75.93
37066;BME280;22981;43.080;25.550;2023-07-24T04:28:18;99682.83;;;20.62;76.02
37066;BME280;22981;43.080;25.550;2023-07-24T04:30:45;99676.03;;;20.60;76.09
37066;BME280;22981;43.080;25.550;2023-07-24T04:33:13;99682.31;;;20.60;76.31
37066;BME280;22981;43.080;25.550;2023-07-24T04:35:40;99682.83;;;20.60;76.47
37066;BME280;22981;43.080;25.550;2023-07-24T04:38:08;99681.77;;;20.61;76.48
37066;BME280;22981;43.080;25.550;2023-07-24T04:40:35;99685.03;;;20.60;76.52
37066;BME280;22981;43.080;25.550;2023-07-24T04:43:03;99683.94;;;20.59;76.76
37066;BME280;22981;43.080;25.550;2023-07-24T04:45:31;99687.75;;;20.60;76.86
37066;BME280;22981;43.080;25.550;2023-07-24T04:47:58;99686.39;;;20.60;77.06
37066;BME280;22981;43.080;25.550;2023-07-24T04:50:26;99681.70;;;20.68;77.05
37066;BME280;22981;43.080;25.550;2023-07-24T04:52:53;99677.61;;;20.71;77.08
37066;BME280;22981;43.080;25.550;2023-07-24T04:55:21;99672.72;;;20.70;77.28
37066;BME280;22981;43.080;25.550;2023-07-24T04:57:49;99677.83;;;20.80;77.30
37066;BME280;22981;43.080;25.550;2023-07-24T05:00:17;99682.16;;;20.86;77.32
37066;BME280;22981;43.080;25.550;2023-07-24T05:02:44;99679.11;;;20.92;77.30
37066;BME280;22981;43.080;25.550;2023-07-24T05:05:12;99681.23;;;21.03;77.12
37066;BME280;22981;43.080;25.550;2023-07-24T05:07:39;99675.40;;;21.15;76.85
37066;BME280;22981;43.080;25.550;2023-07-24T05:10:07;99670.97;;;21.24;76.71
37066;BME280;22981;43.080;25.550;2023-07-24T05:12:35;99674.19;;;21.31;76.56
37066;BME280;22981;43.080;25.550;2023-07-24T05:15:02;99680.19;;;21.31;76.39
37066;BME280;22981;43.080;25.550;2023-07-24T05:17:30;99675.58;;;21.29;76.59
37066;BME280;22981;43.080;25.550;2023-07-24T05:19:57;99674.75;;;21.28;76.88
37066;BME280;22981;43.080;25.550;2023-07-24T05:22:25;99669.02;;;21.35;77.14
37066;BME280;22981;43.080;25.550;2023-07-24T05:24:53;99664.52;;;21.49;77.08
37066;BME280;22981;43.080;25.550;2023-07-24T05:27:20;99662.28;;;21.56;77.07
37066;BME280;22981;43.080;25.550;2023-07-24T05:29:48;99657.57;;;21.64;77.07
37066;BME280;22981;43.080;25.550;2023-07-24T05:32:15;99652.86;;;21.72;77.12
37066;BME280;22981;43.080;25.550;2023-07-24T05:34:43;99647.59;;;21.81;77.16
37066;BME280;22981;43.080;25.550;2023-07-24T05:37:10;99650.25;;;21.86;77.08
37066;BME280;22981;43.080;25.550;2023-07-24T05:39:38;99651.79;;;21.95;77.10
37066;BME280;22981;43.080;25.550;2023-07-24T05:42:05;99653.56;;;22.07;76.98
37066;BME280;22981;43.080;25.550;2023-07-24T05:44:33;99653.77;;;22.13;76.80
37066;BME280;22981;43.080;25.550;2023-07-24T05:47:02;99655.30;;;22.22;76.76
37066;BME280;22981;43.080;25.550;2023-07-24T05:49:30;99659.53;;;22.33;76.63
37066;BME280;22981;43.080;25.550;2023-07-24T05:51:58;99657.45;;;22.46;76.18
37066;BME280;22981;43.080;25.550;2023-07-24T05:54:25;99658.64;;;22.59;75.82
37066;BME280;22981;43.080;25.550;2023-07-24T05:56:53;99658.20;;;22.71;75.09
37066;BME280;22981;43.080;25.550;2023-07-24T05:59:20;99653.14;;;22.81;74.78
37066;BME280;22981;43.080;25.550;2023-07-24T06:01:48;99657.69;;;22.88;74.57
37066;BME280;22981;43.080;25.550;2023-07-24T06:04:15;99653.54;;;22.93;74.39
37066;BME280;22981;43.080;25.550;2023-07-24T06:06:44;99652.89;;;22.98;74.30
37066;BME280;22981;43.080;25.550;2023-07-24T06:09:11;99657.77;;;23.02;74.10
37066;BME280;22981;43.080;25.550;2023-07-24T06:11:39;99659.11;;;23.04;73.81
37066;BME280;22981;43.080;25.550;2023-07-24T06:14:06;99657.94;;;23.08;73.75
37066;BME280;22981;43.080;25.550;2023-07-24T06:16:34;99648.56;;;23.14;73.57
37066;BME280;22981;43.080;25.550;2023-07-24T06:19:01;99647.02;;;23.24;73.29
37066;BME280;22981;43.080;25.550;2023-07-24T06:21:29;99650.66;;;23.36;73.15
37066;BME280;22981;43.080;25.550;2023-07-24T06:23:56;99651.02;;;23.45;72.54
37066;BME280;22981;43.080;25.550;2023-07-24T06:26:24;99646.58;;;23.49;72.16
37066;BME280;22981;43.080;25.550;2023-07-24T06:28:51;99643.16;;;23.58;71.85
37066;BME280;22981;43.080;25.550;2023-07-24T06:31:19;99635.66;;;23.66;71.64
37066;BME280;22981;43.080;25.550;2023-07-24T06:33:46;99633.59;;;23.74;71.53
37066;BME280;22981;43.080;25.550;2023-07-24T06:36:19;99628.83;;;23.80;71.24
37066;BME280;22981;43.080;25.550;2023-07-24T06:38:46;99623.71;;;23.89;71.00
37066;BME280;22981;43.080;25.550;2023-07-24T06:41:17;99627.31;;;24.01;70.66
37066;BME280;22981;43.080;25.550;2023-07-24T06:43:46;99632.59;;;24.11;69.87
37066;BME280;22981;43.080;25.550;2023-07-24T06:46:14;99639.52;;;24.20;69.12
37066;BME280;22981;43.080;25.550;2023-07-24T06:48:41;99639.41;;;24.25;68.26
37066;BME280;22981;43.080;25.550;2023-07-24T06:51:09;99626.98;;;24.30;67.51
37066;BME280;22981;43.080;25.550;2023-07-24T06:53:36;99631.21;;;24.36;67.40
37066;BME280;22981;43.080;25.550;2023-07-24T06:56:04;99622.59;;;24.45;67.49
37066;BME280;22981;43.080;25.550;2023-07-24T06:58:31;99625.84;;;24.59;67.21
37066;BME280;22981;43.080;25.550;2023-07-24T07:00:59;99625.11;;;24.67;66.43
37066;BME280;22981;43.080;25.550;2023-07-24T07:03:26;99619.70;;;24.76;66.35
37066;BME280;22981;43.080;25.550;2023-07-24T07:05:58;99622.75;;;24.85;65.45
37066;BME280;22981;43.080;25.550;2023-07-24T07:08:26;99615.41;;;24.94;64.89
37066;BME280;22981;43.080;25.550;2023-07-24T07:10:58;99614.85;;;25.06;64.45
37066;BME280;22981;43.080;25.550;2023-07-24T07:13:27;99614.05;;;25.17;64.25
37066;BME280;22981;43.080;25.550;2023-07-24T07:15:54;99609.38;;;25.29;63.99
37066;BME280;22981;43.080;25.550;2023-07-24T07:18:22;99611.03;;;25.38;63.63
37066;BME280;22981;43.080;25.550;2023-07-24T07:20:51;99602.05;;;25.46;63.08
37066;BME280;22981;43.080;25.550;2023-07-24T07:23:19;99598.22;;;25.56;62.42
37066;BME280;22981;43.080;25.550;2023-07-24T07:25:47;99594.14;;;25.65;62.31
37066;BME280;22981;43.080;25.550;2023-07-24T07:28:16;99592.50;;;25.75;62.19
37066;BME280;22981;43.080;25.550;2023-07-24T07:30:45;99597.09;;;25.88;61.72
37066;BME280;22981;43.080;25.550;2023-07-24T07:33:12;99599.23;;;26.00;60.85
37066;BME280;22981;43.080;25.550;2023-07-24T07:35:40;99598.67;;;26.09;60.39
37066;BME280;22981;43.080;25.550;2023-07-24T07:38:08;99597.09;;;26.17;59.79
37066;BME280;22981;43.080;25.550;2023-07-24T07:40:37;99594.59;;;26.27;59.38
37066;BME280;22981;43.080;25.550;2023-07-24T07:43:06;99598.16;;;26.36;59.15
37066;BME280;22981;43.080;25.550;2023-07-24T07:45:34;99593.44;;;26.48;59.15
37066;BME280;22981;43.080;25.550;2023-07-24T07:48:02;99585.67;;;26.58;57.67
37066;BME280;22981;43.080;25.550;2023-07-24T07:50:30;99586.00;;;26.65;56.79
37066;BME280;22981;43.080;25.550;2023-07-24T07:52:58;99586.80;;;26.75;56.93
37066;BME280;22981;43.080;25.550;2023-07-24T07:55:26;99583.98;;;26.86;57.00
37066;BME280;22981;43.080;25.550;2023-07-24T07:57:53;99587.18;;;26.96;56.56
37066;BME280;22981;43.080;25.550;2023-07-24T08:00:21;99590.98;;;27.07;56.40
37066;BME280;22981;43.080;25.550;2023-07-24T08:02:48;99581.61;;;27.16;55.34
37066;BME280;22981;43.080;25.550;2023-07-24T08:05:16;99575.17;;;27.27;55.59
37066;BME280;22981;43.080;25.550;2023-07-24T08:07:44;99569.91;;;27.37;55.99
37066;BME280;22981;43.080;25.550;2023-07-24T08:10:11;99571.14;;;27.48;55.57
37066;BME280;22981;43.080;25.550;2023-07-24T08:12:41;99568.84;;;27.59;54.54
37066;BME280;22981;43.080;25.550;2023-07-24T08:15:09;99563.88;;;27.67;54.55
37066;BME280;22981;43.080;25.550;2023-07-24T08:17:37;99561.00;;;27.78;53.96
37066;BME280;22981;43.080;25.550;2023-07-24T08:20:05;99558.43;;;27.88;53.22
37066;BME280;22981;43.080;25.550;2023-07-24T08:22:33;99554.82;;;27.96;52.74
37066;BME280;22981;43.080;25.550;2023-07-24T08:25:00;99558.46;;;28.09;53.47
37066;BME280;22981;43.080;25.550;2023-07-24T08:27:28;99555.80;;;28.21;53.13
37066;BME280;22981;43.080;25.550;2023-07-24T08:29:56;99542.91;;;28.34;52.52
37066;BME280;22981;43.080;25.550;2023-07-24T08:32:23;99546.78;;;28.48;51.18
37066;BME280;22981;43.080;25.550;2023-07-24T08:34:51;99543.73;;;28.55;50.88
37066;BME280;22981;43.080;25.550;2023-07-24T08:37:18;99549.29;;;28.67;50.39
37066;BME280;22981;43.080;25.550;2023-07-24T08:39:46;99552.09;;;28.80;49.67
37066;BME280;22981;43.080;25.550;2023-07-24T08:42:13;99543.39;;;28.90;49.00
37066;BME280;22981;43.080;25.550;2023-07-24T08:44:42;99546.56;;;29.01;49.07
37066;BME280;22981;43.080;25.550;2023-07-24T08:47:11;99544.42;;;29.12;48.55
37066;BME280;22981;43.080;25.550;2023-07-24T08:49:39;99542.94;;;29.21;47.67
37066;BME280;22981;43.080;25.550;2023-07-24T08:52:08;99546.95;;;29.24;48.05
37066;BME280;22981;43.080;25.550;2023-07-24T08:54:36;99545.34;;;29.29;47.80
37066;BME280;22981;43.080;25.550;2023-07-24T08:57:06;99539.50;;;29.36;47.23
37066;BME280;22981;43.080;25.550;2023-07-24T08:59:34;99540.90;;;29.42;45.73
37066;BME280;22981;43.080;25.550;2023-07-24T09:02:02;99539.52;;;29.49;45.88
37066;BME280;22981;43.080;25.550;2023-07-24T09:04:29;99540.23;;;29.58;45.29
37066;BME280;22981;43.080;25.550;2023-07-24T09:06:58;99540.44;;;29.53;46.06
37066;BME280;22981;43.080;25.550;2023-07-24T09:09:29;99540.09;;;29.48;46.11
37066;BME280;22981;43.080;25.550;2023-07-24T09:11:56;99533.53;;;29.53;44.85
37066;BME280;22981;43.080;25.550;2023-07-24T09:14:27;99531.05;;;29.60;44.83
37066;BME280;22981;43.080;25.550;2023-07-24T09:17:08;99525.86;;;29.58;45.53
37066;BME280;22981;43.080;25.550;2023-07-24T09:19:36;99525.02;;;29.45;45.16
37066;BME280;22981;43.080;25.550;2023-07-24T09:22:14;99519.97;;;29.35;45.93
37066;BME280;22981;43.080;25.550;2023-07-24T09:24:57;99520.20;;;29.36;46.53
37066;BME280;22981;43.080;25.550;2023-07-24T09:27:24;99523.31;;;29.35;46.78
37066;BME280;22981;43.080;25.550;2023-07-24T09:29:51;99522.38;;;29.37;45.85
37066;BME280;22981;43.080;25.550;2023-07-24T09:32:23;99522.28;;;29.52;45.19
37066;BME280;22981;43.080;25.550;2023-07-24T09:34:51;99515.52;;;29.74;44.88
37066;BME280;22981;43.080;25.550;2023-07-24T09:39:53;99511.19;;;30.19;45.00
37066;BME280;22981;43.080;25.550;2023-07-24T09:42:34;99511.48;;;30.36;43.65
37066;BME280;22981;43.080;25.550;2023-07-24T09:45:02;99506.05;;;30.46;43.56
37066;BME280;22981;43.080;25.550;2023-07-24T09:47:31;99513.34;;;30.60;43.85
37066;BME280;22981;43.080;25.550;2023-07-24T09:50:00;99503.20;;;30.64;43.12
37066;BME280;22981;43.080;25.550;2023-07-24T09:52:30;99498.04;;;30.62;43.30
37066;BME280;22981;43.080;25.550;2023-07-24T09:57:32;99491.27;;;30.82;41.98
37066;BME280;22981;43.080;25.550;2023-07-24T10:00:00;99491.77;;;30.72;42.09
37066;BME280;22981;43.080;25.550;2023-07-24T10:02:28;99480.98;;;30.66;42.25
37066;BME280;22981;43.080;25.550;2023-07-24T10:04:57;99480.73;;;30.65;41.82
37066;BME280;22981;43.080;25.550;2023-07-24T10:07:24;99474.73;;;30.76;41.06
37066;BME280;22981;43.080;25.550;2023-07-24T10:09:52;99473.20;;;30.78;41.51
37066;BME280;22981;43.080;25.550;2023-07-24T10:12:22;99471.12;;;30.81;41.45
37066;BME280;22981;43.080;25.550;2023-07-24T10:14:50;99463.25;;;30.89;40.76
37066;BME280;22981;43.080;25.550;2023-07-24T10:17:40;99461.81;;;30.96;40.15
37066;BME280;22981;43.080;25.550;2023-07-24T10:20:10;99457.02;;;30.92;39.73
37066;BME280;22981;43.080;25.550;2023-07-24T10:22:42;99459.22;;;30.87;40.12
37066;BME280;22981;43.080;25.550;2023-07-24T10:25:10;99452.04;;;30.92;40.24
37066;BME280;22981;43.080;25.550;2023-07-24T10:27:45;99448.26;;;30.90;40.45
37066;BME280;22981;43.080;25.550;2023-07-24T10:30:13;99452.29;;;30.93;39.92
37066;BME280;22981;43.080;25.550;2023-07-24T10:32:48;99454.25;;;30.92;40.09
37066;BME280;22981;43.080;25.550;2023-07-24T10:35:16;99451.22;;;30.98;40.39
37066;BME280;22981;43.080;25.550;2023-07-24T10:37:45;99445.35;;;31.09;40.23
37066;BME280;22981;43.080;25.550;2023-07-24T10:40:20;99443.84;;;31.11;39.71
37066;BME280;22981;43.080;25.550;2023-07-24T10:42:58;99444.61;;;31.18;38.77
37066;BME280;22981;43.080;25.550;2023-07-24T10:45:18;99442.16;;;31.23;37.69
37066;BME280;22981;43.080;25.550;2023-07-24T10:47:46;99430.73;;;31.24;37.55
37066;BME280;22981;43.080;25.550;2023-07-24T10:50:13;99429.94;;;31.39;39.64
37066;BME280;22981;43.080;25.550;2023-07-24T10:52:41;99434.78;;;31.52;40.03
37066;BME280;22981;43.080;25.550;2023-07-24T10:55:09;99429.84;;;31.61;38.62
37066;BME280;22981;43.080;25.550;2023-07-24T10:57:36;99425.83;;;31.68;37.85
37066;BME280;22981;43.080;25.550;2023-07-24T11:00:04;99425.20;;;31.75;37.36
37066;BME280;22981;43.080;25.550;2023-07-24T11:02:32;99419.16;;;31.79;36.78
37066;BME280;22981;43.080;25.550;2023-07-24T11:05:00;99410.64;;;31.78;36.47
37066;BME280;22981;43.080;25.550;2023-07-24T11:07:31;99413.41;;;31.78;36.77
37066;BME280;22981;43.080;25.550;2023-07-24T11:09:58;99412.55;;;31.84;36.85
37066;BME280;22981;43.080;25.550;2023-07-24T11:12:25;99413.86;;;31.90;36.65
37066;BME280;22981;43.080;25.550;2023-07-24T11:14:54;99409.78;;;31.94;35.33
37066;BME280;22981;43.080;25.550;2023-07-24T11:17:32;99404.11;;;31.96;34.52
37066;BME280;22981;43.080;25.550;2023-07-24T11:19:51;99398.36;;;32.05;35.00
37066;BME280;22981;43.080;25.550;2023-07-24T11:22:21;99396.95;;;32.14;36.00
37066;BME280;22981;43.080;25.550;2023-07-24T11:24:49;99389.52;;;32.19;36.16
37066;BME280;22981;43.080;25.550;2023-07-24T11:27:17;99390.91;;;32.19;34.59
37066;BME280;22981;43.080;25.550;2023-07-24T11:29:49;99392.73;;;32.11;32.79
37066;BME280;22981;43.080;25.550;2023-07-24T11:32:20;99396.97;;;32.05;32.30
37066;BME280;22981;43.080;25.550;2023-07-24T11:34:49;99393.83;;;32.06;32.80
37066;BME280;22981;43.080;25.550;2023-07-24T11:37:18;99391.34;;;32.11;32.77
37066;BME280;22981;43.080;25.550;2023-07-24T11:40:02;99384.28;;;32.13;32.91
37066;BME280;22981;43.080;25.550;2023-07-24T11:42:28;99385.16;;;32.18;32.63
37066;BME280;22981;43.080;25.550;2023-07-24T11:44:56;99377.44;;;32.17;32.29
37066;BME280;22981;43.080;25.550;2023-07-24T11:47:23;99371.97;;;32.21;32.49
37066;BME280;22981;43.080;25.550;2023-07-24T11:50:01;99372.59;;;32.24;32.40
37066;BME280;22981;43.080;25.550;2023-07-24T11:52:43;99373.39;;;32.24;32.75
37066;BME280;22981;43.080;25.550;2023-07-24T11:55:12;99365.88;;;32.25;33.07
37066;BME280;22981;43.080;25.550;2023-07-24T11:57:40;99363.48;;;32.23;32.97
37066;BME280;22981;43.080;25.550;2023-07-24T12:00:18;99365.39;;;32.19;32.67
37066;BME280;22981;43.080;25.550;2023-07-24T12:02:39;99359.85;;;32.19;32.68
37066;BME280;22981;43.080;25.550;2023-07-24T12:05:07;99353.59;;;32.22;32.83
37066;BME280;22981;43.080;25.550;2023-07-24T12:07:35;99353.42;;;32.25;33.11
37066;BME280;22981;43.080;25.550;2023-07-24T12:10:04;99347.81;;;32.31;33.96
37066;BME280;22981;43.080;25.550;2023-07-24T12:12:46;99344.34;;;32.37;34.33
37066;BME280;22981;43.080;25.550;2023-07-24T12:15:15;99338.17;;;32.44;34.81
37066;BME280;22981;43.080;25.550;2023-07-24T12:17:42;99339.45;;;32.50;34.72
37066;BME280;22981;43.080;25.550;2023-07-24T12:20:10;99339.73;;;32.55;33.97
37066;BME280;22981;43.080;25.550;2023-07-24T12:22:38;99333.11;;;32.59;33.90
37066;BME280;22981;43.080;25.550;2023-07-24T12:25:06;99333.52;;;32.61;33.77
37066;BME280;22981;43.080;25.550;2023-07-24T12:27:34;99336.23;;;32.58;33.58
37066;BME280;22981;43.080;25.550;2023-07-24T12:30:02;99345.23;;;32.51;32.71
37066;BME280;22981;43.080;25.550;2023-07-24T12:32:29;99336.38;;;32.42;32.70
37066;BME280;22981;43.080;25.550;2023-07-24T12:34:57;99336.89;;;32.38;32.71
37066;BME280;22981;43.080;25.550;2023-07-24T12:37:24;99338.59;;;32.36;32.40
37066;BME280;22981;43.080;25.550;2023-07-24T12:39:52;99336.34;;;32.32;32.71
37066;BME280;22981;43.080;25.550;2023-07-24T12:42:19;99327.09;;;32.34;33.23
37066;BME280;22981;43.080;25.550;2023-07-24T12:44:47;99328.11;;;32.36;32.96
37066;BME280;22981;43.080;25.550;2023-07-24T12:47:14;99328.25;;;32.33;33.69
37066;BME280;22981;43.080;25.550;2023-07-24T12:49:42;99321.88;;;32.29;33.40
37066;BME280;22981;43.080;25.550;2023-07-24T12:52:10;99315.30;;;32.28;33.40
37066;BME280;22981;43.080;25.550;2023-07-24T12:54:38;99320.91;;;32.31;33.45
37066;BME280;22981;43.080;25.550;2023-07-24T12:57:05;99312.70;;;32.25;33.04
37066;BME280;22981;43.080;25.550;2023-07-24T12:59:33;99303.87;;;32.20;32.85
37066;BME280;22981;43.080;25.550;2023-07-24T13:02:01;99310.20;;;32.20;33.27
37066;BME280;22981;43.080;25.550;2023-07-24T13:04:28;99304.32;;;32.22;33.57
37066;BME280;22981;43.080;25.550;2023-07-24T13:06:56;99310.06;;;32.23;33.16